createdAt,value
2018-05-31T00:01:42.302Z,25.13
2018-05-31T00:04:09.881Z,24.57
2018-05-31T00:06:37.512Z,26.77
2018-05-31T00:09:05.337Z,24.63
2018-05-31T00:11:32.135Z,24.30
2018-05-31T00:13:59.039Z,24.67
2018-05-31T00:16:25.834Z,25.17
2018-05-31T00:18:52.627Z,23.27
2018-05-31T00:21:19.692Z,23.87
2018-05-31T00:23:46.470Z,24.83
2018-05-31T00:26:14.016Z,22.43
2018-05-31T00:28:41.004Z,23.43
2018-05-31T00:31:07.781Z,22.63
2018-05-31T00:33:34.606Z,22.77
2018-05-31T00:36:01.448Z,22.13
2018-05-31T00:38:28.236Z,22.13
2018-05-31T00:40:55.035Z,22.63
2018-05-31T00:43:21.927Z,23.07
2018-05-31T00:45:48.788Z,23.77
2018-05-31T00:48:16.341Z,24.90
2018-05-31T00:50:43.330Z,25.00
2018-05-31T00:53:10.114Z,26.03
2018-05-31T00:55:55.311Z,25.80
2018-05-31T00:58:22.146Z,24.63
2018-05-31T01:00:49.751Z,24.50
2018-05-31T01:03:16.740Z,24.33
2018-05-31T01:05:43.535Z,25.73
2018-05-31T01:08:10.645Z,25.87
2018-05-31T01:10:37.531Z,25.20
2018-05-31T01:13:04.339Z,26.90
2018-05-31T01:15:36.989Z,26.53
2018-05-31T01:18:03.845Z,27.23
2018-05-31T01:20:30.647Z,26.73
2018-05-31T01:22:57.508Z,27.50
2018-05-31T01:25:24.411Z,26.90
2018-05-31T01:27:51.164Z,25.33
2018-05-31T01:30:18.689Z,26.77
2018-05-31T01:32:45.517Z,27.50
2018-05-31T01:35:13.099Z,27.93
2018-05-31T01:37:39.892Z,26.00
2018-05-31T01:40:06.736Z,27.60
2018-05-31T01:42:33.541Z,25.13
2018-05-31T01:45:00.336Z,24.40
2018-05-31T01:47:28.363Z,25.80
2018-05-31T01:49:55.904Z,24.70
2018-05-31T01:52:23.460Z,25.20
2018-05-31T01:54:50.284Z,25.07
2018-05-31T01:57:17.083Z,24.13
2018-05-31T01:59:43.932Z,25.57
2018-05-31T02:02:10.802Z,24.00
2018-05-31T02:04:37.608Z,23.30
2018-05-31T02:07:05.158Z,25.27
2018-05-31T02:09:32.267Z,25.90
2018-05-31T02:11:59.865Z,24.97
2018-05-31T02:14:26.661Z,27.43
2018-05-31T02:16:53.623Z,26.70
2018-05-31T02:19:20.464Z,28.77
2018-05-31T02:21:47.256Z,29.00
2018-05-31T02:24:14.143Z,29.23
2018-05-31T02:26:40.936Z,30.17
2018-05-31T02:29:08.476Z,30.30
2018-05-31T02:31:35.308Z,29.67
2018-05-31T02:34:02.124Z,28.17
2018-05-31T02:36:28.967Z,26.87
2018-05-31T02:38:55.840Z,27.63
2018-05-31T02:41:22.652Z,27.60
2018-05-31T02:43:49.463Z,27.83
2018-05-31T02:46:16.416Z,27.83
2018-05-31T02:48:43.275Z,27.70
2018-05-31T02:51:10.117Z,26.23
2018-05-31T02:53:36.949Z,26.93
2018-05-31T02:56:03.781Z,25.97
2018-05-31T02:58:31.315Z,26.23
2018-05-31T03:00:58.924Z,27.37
2018-05-31T03:03:25.840Z,28.37
2018-05-31T03:05:52.630Z,27.07
2018-05-31T03:08:19.464Z,27.37
2018-05-31T03:10:46.320Z,27.53
2018-05-31T03:13:13.915Z,27.93
2018-05-31T03:15:40.699Z,26.83
2018-05-31T03:18:07.549Z,27.23
2018-05-31T03:20:34.372Z,28.30
2018-05-31T03:23:01.907Z,27.23
2018-05-31T03:25:28.794Z,27.03
2018-05-31T03:27:55.645Z,26.07
2018-05-31T03:30:22.475Z,26.67
2018-05-31T03:32:50.050Z,28.17
2018-05-31T03:35:16.862Z,27.53
2018-05-31T03:37:43.892Z,25.40
2018-05-31T03:40:10.676Z,27.37
2018-05-31T03:42:38.212Z,26.43
2018-05-31T03:45:05.172Z,26.37
2018-05-31T03:47:31.977Z,25.67
2018-05-31T03:49:59.560Z,28.53
2018-05-31T03:52:26.413Z,27.47
2018-05-31T03:54:53.977Z,28.07
2018-05-31T03:57:21.520Z,27.30
2018-05-31T03:59:48.491Z,27.40
2018-05-31T04:02:15.322Z,26.13
2018-05-31T04:04:42.338Z,26.77
2018-05-31T04:07:09.168Z,25.80
2018-05-31T04:09:37.578Z,26.23
2018-05-31T04:12:04.375Z,27.60
2018-05-31T04:14:31.269Z,25.77
2018-05-31T04:16:58.054Z,25.80
2018-05-31T04:19:24.891Z,26.87
2018-05-31T04:21:51.760Z,26.30
2018-05-31T04:24:18.616Z,26.80
2018-05-31T04:26:45.616Z,26.40
2018-05-31T04:29:13.189Z,30.20
2018-05-31T04:31:40.035Z,31.93
2018-05-31T04:34:06.870Z,30.37
2018-05-31T04:36:33.708Z,30.23
2018-05-31T04:39:00.570Z,29.80
2018-05-31T04:41:27.377Z,28.50
2018-05-31T04:43:54.202Z,28.70
2018-05-31T04:46:21.754Z,27.47
2018-05-31T04:48:48.560Z,27.13
2018-05-31T04:51:15.469Z,26.93
2018-05-31T04:53:42.280Z,26.90
2018-05-31T04:56:09.288Z,22.77
2018-05-31T04:58:36.859Z,22.97
2018-05-31T05:01:03.648Z,25.03
2018-05-31T05:03:30.512Z,22.80
2018-05-31T05:05:57.344Z,21.40
2018-05-31T05:08:24.144Z,22.07
2018-05-31T05:10:50.943Z,24.00
2018-05-31T05:13:17.772Z,23.90
2018-05-31T05:15:45.424Z,24.80
2018-05-31T05:18:12.223Z,23.13
2018-05-31T05:20:39.057Z,21.63
2018-05-31T05:23:06.587Z,22.83
2018-05-31T05:25:33.373Z,21.50
2018-05-31T05:28:00.268Z,23.43
2018-05-31T05:30:27.835Z,21.47
2018-05-31T05:32:54.620Z,21.80
2018-05-31T05:35:21.569Z,20.50
2018-05-31T05:37:48.411Z,21.63
2018-05-31T05:40:15.287Z,20.93
2018-05-31T05:42:42.240Z,20.60
2018-05-31T05:45:15.773Z,22.27
2018-05-31T05:47:42.611Z,22.17
2018-05-31T05:50:09.441Z,20.93
2018-05-31T05:52:37.017Z,18.20
2018-05-31T05:55:04.029Z,17.90
2018-05-31T05:57:30.840Z,17.77
2018-05-31T05:59:57.636Z,18.03
2018-05-31T06:02:24.472Z,19.03
2018-05-31T06:04:52.050Z,19.23
2018-05-31T06:07:18.836Z,18.57
2018-05-31T06:09:45.661Z,17.80
2018-05-31T06:12:12.459Z,17.80
2018-05-31T06:14:39.258Z,17.20
2018-05-31T06:17:06.236Z,16.73
2018-05-31T06:19:33.016Z,16.33
2018-05-31T06:21:59.857Z,17.07
2018-05-31T06:24:26.681Z,16.27
2018-05-31T06:26:53.496Z,15.90
2018-05-31T06:29:20.444Z,16.70
2018-05-31T06:31:47.287Z,15.67
2018-05-31T06:34:14.091Z,15.93
2018-05-31T06:36:40.871Z,16.57
2018-05-31T06:39:07.721Z,14.27
2018-05-31T06:41:35.582Z,14.50
2018-05-31T06:44:02.432Z,14.10
2018-05-31T06:46:29.259Z,13.77
2018-05-31T06:48:56.780Z,15.00
2018-05-31T06:51:23.817Z,12.70
2018-05-31T06:53:51.515Z,14.23
2018-05-31T06:56:19.032Z,13.73
2018-05-31T06:58:45.809Z,14.70
2018-05-31T07:01:12.771Z,15.40
2018-05-31T07:03:40.284Z,14.17
2018-05-31T07:06:07.860Z,12.90
2018-05-31T07:08:34.712Z,15.77
2018-05-31T07:11:01.484Z,15.47
2018-05-31T07:13:29.003Z,15.73
2018-05-31T07:15:56.053Z,14.53
2018-05-31T07:18:22.851Z,14.83
2018-05-31T07:20:49.637Z,13.77
2018-05-31T07:23:16.460Z,14.30
2018-05-31T07:25:43.252Z,15.07
2018-05-31T07:28:10.104Z,15.33
2018-05-31T07:30:37.006Z,15.50
2018-05-31T07:33:03.802Z,17.73
2018-05-31T07:35:30.624Z,16.20
2018-05-31T07:37:57.407Z,14.80
2018-05-31T07:40:24.179Z,13.97
2018-05-31T07:42:51.096Z,13.53
2018-05-31T07:45:24.028Z,14.80
2018-05-31T07:47:50.864Z,14.37
2018-05-31T07:50:17.692Z,13.30
2018-05-31T07:52:44.469Z,12.70
2018-05-31T07:55:11.347Z,12.17
2018-05-31T07:57:38.163Z,12.80
2018-05-31T08:00:04.988Z,14.00
2018-05-31T08:02:31.807Z,12.70
2018-05-31T08:04:58.636Z,12.63
2018-05-31T08:07:25.460Z,14.73
2018-05-31T08:09:52.976Z,13.63
2018-05-31T08:12:19.788Z,12.80
2018-05-31T08:14:46.558Z,13.63
2018-05-31T08:17:17.692Z,11.97
2018-05-31T08:19:45.304Z,13.17
2018-05-31T08:22:12.833Z,12.50
2018-05-31T08:24:39.673Z,14.50
2018-05-31T08:27:06.452Z,12.97
2018-05-31T08:29:33.983Z,14.13
2018-05-31T08:32:00.857Z,13.27
2018-05-31T08:34:28.676Z,14.77
2018-05-31T08:36:55.522Z,13.83
2018-05-31T08:39:22.386Z,12.57
2018-05-31T08:41:49.155Z,11.80
2018-05-31T08:44:16.034Z,11.43
2018-05-31T08:46:42.880Z,13.43
2018-05-31T08:49:09.684Z,12.10
2018-05-31T08:51:37.276Z,12.30
2018-05-31T08:54:04.087Z,12.20
2018-05-31T08:56:31.740Z,12.00
2018-05-31T08:58:59.262Z,11.87
2018-05-31T09:01:26.072Z,12.47
2018-05-31T09:03:52.840Z,12.57
2018-05-31T09:06:19.657Z,12.53
2018-05-31T09:08:46.522Z,11.77
2018-05-31T09:11:13.357Z,11.93
2018-05-31T09:13:40.265Z,11.43
2018-05-31T09:16:07.084Z,12.80
2018-05-31T09:18:33.873Z,10.57
2018-05-31T09:21:01.074Z,11.70
2018-05-31T09:23:27.851Z,9.97
2018-05-31T09:25:55.380Z,12.13
2018-05-31T09:28:22.213Z,11.37
2018-05-31T09:30:49.034Z,12.67
2018-05-31T09:33:15.864Z,12.07
2018-05-31T09:35:42.675Z,11.43
2018-05-31T09:38:09.486Z,13.47
2018-05-31T09:40:36.360Z,11.90
2018-05-31T09:43:03.180Z,12.93
2018-05-31T09:45:35.936Z,12.87
2018-05-31T09:48:03.012Z,12.17
2018-05-31T09:50:29.792Z,12.07
2018-05-31T09:52:57.328Z,12.23
2018-05-31T09:55:24.145Z,12.93
2018-05-31T09:57:51.708Z,14.60
2018-05-31T10:00:18.531Z,13.70
2018-05-31T10:02:45.309Z,11.23
2018-05-31T10:05:12.137Z,11.10
2018-05-31T10:07:38.947Z,11.23
2018-05-31T10:10:05.788Z,13.50
2018-05-31T10:12:32.602Z,12.10
2018-05-31T10:14:59.369Z,12.90
2018-05-31T10:17:26.915Z,13.37
2018-05-31T10:19:54.424Z,11.83
2018-05-31T10:22:21.260Z,11.70
2018-05-31T10:24:48.088Z,12.27
2018-05-31T10:27:14.851Z,12.43
2018-05-31T10:29:41.673Z,12.03
2018-05-31T10:32:08.459Z,11.97
2018-05-31T10:34:35.355Z,11.80
2018-05-31T10:37:02.190Z,11.20
2018-05-31T10:39:29.776Z,11.37
2018-05-31T10:41:56.769Z,11.23
2018-05-31T10:44:23.543Z,10.37
2018-05-31T10:46:50.363Z,10.67
2018-05-31T10:49:17.159Z,10.87
2018-05-31T10:51:43.911Z,11.40
2018-05-31T10:54:10.752Z,12.27
2018-05-31T10:56:37.522Z,10.97
2018-05-31T10:59:04.532Z,10.87
2018-05-31T11:01:31.303Z,10.77
2018-05-31T11:03:58.072Z,10.70
2018-05-31T11:06:24.889Z,10.77
2018-05-31T11:08:51.651Z,10.93
2018-05-31T11:11:18.638Z,11.37
2018-05-31T11:13:45.391Z,11.47
2018-05-31T11:16:12.189Z,12.43
2018-05-31T11:18:39.014Z,12.27
2018-05-31T11:21:05.805Z,11.53
2018-05-31T11:23:32.712Z,12.10
2018-05-31T11:25:59.491Z,11.40
2018-05-31T11:28:26.264Z,12.10
2018-05-31T11:30:53.098Z,11.57
2018-05-31T11:33:19.873Z,11.83
2018-05-31T11:35:46.760Z,11.30
2018-05-31T11:38:13.599Z,11.37
2018-05-31T11:40:41.169Z,10.87
2018-05-31T11:43:07.996Z,11.23
2018-05-31T11:45:40.819Z,10.57
2018-05-31T11:48:08.535Z,10.77
2018-05-31T11:50:35.311Z,9.83
2018-05-31T11:53:02.086Z,10.67
2018-05-31T11:55:28.934Z,10.90
2018-05-31T11:57:55.713Z,10.00
2018-05-31T12:00:22.620Z,10.43
2018-05-31T12:02:49.419Z,9.37
2018-05-31T12:05:16.215Z,9.63
2018-05-31T12:07:43.062Z,8.80
2018-05-31T12:10:09.845Z,8.43
2018-05-31T12:12:36.732Z,9.10
2018-05-31T12:15:03.609Z,8.43
2018-05-31T12:17:30.449Z,9.13
2018-05-31T12:19:57.972Z,8.97
2018-05-31T12:22:24.812Z,9.33
2018-05-31T12:24:52.383Z,7.30
2018-05-31T12:27:19.166Z,7.43
2018-05-31T12:29:46.735Z,7.80
2018-05-31T12:32:14.270Z,7.83
2018-05-31T12:34:41.119Z,9.27
2018-05-31T12:37:07.966Z,9.10
2018-05-31T12:39:34.784Z,9.83
2018-05-31T12:42:01.611Z,9.20
2018-05-31T12:44:28.387Z,9.13
2018-05-31T12:46:55.342Z,9.23
2018-05-31T12:49:22.187Z,9.70
2018-05-31T12:51:48.988Z,8.87
2018-05-31T12:54:15.815Z,8.70
2018-05-31T12:56:42.636Z,8.47
2018-05-31T12:59:10.156Z,8.70
2018-05-31T13:01:37.020Z,7.80
2018-05-31T13:04:03.804Z,8.30
2018-05-31T13:06:30.595Z,10.23
2018-05-31T13:08:57.416Z,10.57
2018-05-31T13:11:24.200Z,9.47
2018-05-31T13:13:51.068Z,9.73
2018-05-31T13:16:18.007Z,10.20
2018-05-31T13:18:45.563Z,9.37
2018-05-31T13:21:13.109Z,9.00
2018-05-31T13:23:39.939Z,9.70
2018-05-31T13:26:06.853Z,8.73
2018-05-31T13:28:33.855Z,8.93
2018-05-31T13:31:01.396Z,9.50
2018-05-31T13:33:28.236Z,8.40
2018-05-31T13:35:55.071Z,9.80
2018-05-31T13:38:21.881Z,8.47
2018-05-31T13:40:48.750Z,8.87
2018-05-31T13:43:15.528Z,8.87
2018-05-31T13:45:43.147Z,8.83
2018-05-31T13:48:09.965Z,8.30
2018-05-31T13:50:36.844Z,8.23
2018-05-31T13:53:03.632Z,8.77
2018-05-31T13:55:31.339Z,8.23
2018-05-31T13:57:58.117Z,8.63
2018-05-31T14:00:24.904Z,8.50
2018-05-31T14:02:51.780Z,8.50
2018-05-31T14:05:18.587Z,8.00
2018-05-31T14:07:45.399Z,6.93
2018-05-31T14:10:12.909Z,6.70
2018-05-31T14:12:39.678Z,7.50
2018-05-31T14:15:12.725Z,6.80
2018-05-31T14:17:39.499Z,6.87
2018-05-31T14:20:06.320Z,6.90
2018-05-31T14:22:33.156Z,7.27
2018-05-31T14:25:00.115Z,7.43
2018-05-31T14:27:27.702Z,7.83
2018-05-31T14:29:54.483Z,8.27
2018-05-31T14:32:22.192Z,7.37
2018-05-31T14:34:48.975Z,7.97
2018-05-31T14:37:16.548Z,7.30
2018-05-31T14:39:43.454Z,6.97
2018-05-31T14:42:10.344Z,7.43
2018-05-31T14:44:37.183Z,5.77
2018-05-31T14:47:04.707Z,5.47
2018-05-31T14:49:31.767Z,6.27
2018-05-31T14:51:58.622Z,5.97
2018-05-31T14:54:26.150Z,6.70
2018-05-31T14:56:53.003Z,6.67
2018-05-31T14:59:19.808Z,6.80
2018-05-31T15:01:46.640Z,6.90
2018-05-31T15:04:13.502Z,6.40
2018-05-31T15:06:40.312Z,7.43
2018-05-31T15:09:08.235Z,6.83
2018-05-31T15:11:35.010Z,7.00
2018-05-31T15:14:02.599Z,7.20
2018-05-31T15:16:29.455Z,7.10
2018-05-31T15:18:56.336Z,6.93
2018-05-31T15:21:23.160Z,7.17
2018-05-31T15:23:49.940Z,7.40
2018-05-31T15:26:16.756Z,6.27
2018-05-31T15:28:44.379Z,7.07
2018-05-31T15:31:11.149Z,6.20
2018-05-31T15:33:37.969Z,6.60
2018-05-31T15:36:04.922Z,7.60
2018-05-31T15:38:32.435Z,6.20
2018-05-31T15:40:59.313Z,6.73
2018-05-31T15:43:27.239Z,7.20
2018-05-31T15:45:54.009Z,6.70
2018-05-31T15:48:21.221Z,6.57
2018-05-31T15:50:47.996Z,7.40
2018-05-31T15:53:14.816Z,7.67
2018-05-31T15:55:41.636Z,12.37
2018-05-31T15:58:08.404Z,7.90
2018-05-31T16:00:35.243Z,8.47
2018-05-31T16:03:02.032Z,7.60
2018-05-31T16:05:29.278Z,9.93
2018-05-31T16:07:56.821Z,7.53
2018-05-31T16:10:23.613Z,8.40
2018-05-31T16:12:50.473Z,8.57
2018-05-31T16:15:23.573Z,9.53
2018-05-31T16:17:51.203Z,13.73
2018-05-31T16:20:17.981Z,8.97
2018-05-31T16:22:44.763Z,10.47
2018-05-31T16:25:12.348Z,9.83
2018-05-31T16:27:39.212Z,12.73
2018-05-31T16:30:06.856Z,9.37
2018-05-31T16:32:33.637Z,9.40
2018-05-31T16:35:00.452Z,8.70
2018-05-31T16:37:27.621Z,7.60
2018-05-31T16:39:54.400Z,26.03
2018-05-31T16:42:21.229Z,57.07
2018-05-31T16:44:48.625Z,12.90
2018-05-31T16:47:16.133Z,16.97
2018-05-31T16:49:42.915Z,13.30
2018-05-31T16:52:10.478Z,14.17
2018-05-31T16:54:37.316Z,12.83
2018-05-31T16:57:04.914Z,5.50
2018-05-31T16:59:31.703Z,20.70
2018-05-31T17:01:58.604Z,18.97
2018-05-31T17:04:26.119Z,7.93
2018-05-31T17:06:53.747Z,5.67
2018-05-31T17:09:20.566Z,6.30
2018-05-31T17:11:47.340Z,4.87
2018-05-31T17:14:20.208Z,5.63
2018-05-31T17:16:46.989Z,5.03
2018-05-31T17:19:13.824Z,5.57
2018-05-31T17:21:40.631Z,14.10
2018-05-31T17:24:07.433Z,40.37
2018-05-31T17:26:34.957Z,25.37
2018-05-31T17:29:02.542Z,9.97
2018-05-31T17:31:29.372Z,11.20
2018-05-31T17:33:56.203Z,6.40
2018-05-31T17:36:22.832Z,6.87
2018-05-31T17:38:51.078Z,8.20
2018-05-31T17:41:17.875Z,6.73
2018-05-31T17:43:44.704Z,5.50
2018-05-31T17:46:11.592Z,5.27
2018-05-31T17:48:39.115Z,5.73
2018-05-31T17:51:05.956Z,36.77
2018-05-31T17:53:32.739Z,16.23
2018-05-31T17:55:59.940Z,12.67
2018-05-31T17:58:26.768Z,27.47
2018-05-31T18:00:53.553Z,19.23
2018-05-31T18:03:21.147Z,14.00
2018-05-31T18:05:47.943Z,8.90
2018-05-31T18:08:14.791Z,9.17
2018-05-31T18:10:41.611Z,8.13
2018-05-31T18:13:08.500Z,9.07
2018-05-31T18:15:35.324Z,8.50
2018-05-31T18:18:02.095Z,7.97
2018-05-31T18:20:28.930Z,9.73
2018-05-31T18:22:56.546Z,10.33
2018-05-31T18:25:23.334Z,13.07
2018-05-31T18:27:50.901Z,10.40
2018-05-31T18:30:18.426Z,11.20
2018-05-31T18:32:45.302Z,9.63
2018-05-31T18:35:13.008Z,10.70
2018-05-31T18:37:39.808Z,8.20
2018-05-31T18:40:06.591Z,8.30
2018-05-31T18:42:34.176Z,10.17
2018-05-31T18:45:01.027Z,8.53
2018-05-31T18:47:27.868Z,8.43
2018-05-31T18:49:54.669Z,7.73
2018-05-31T18:52:21.436Z,9.70
2018-05-31T18:54:48.214Z,7.80
2018-05-31T18:57:15.104Z,8.10
2018-05-31T18:59:41.943Z,8.57
2018-05-31T19:02:08.728Z,8.37
2018-05-31T19:04:35.508Z,8.10
2018-05-31T19:07:03.124Z,8.70
2018-05-31T19:09:33.756Z,7.33
2018-05-31T19:12:00.570Z,7.60
2018-05-31T19:14:27.423Z,8.27
2018-05-31T19:16:54.259Z,8.03
2018-05-31T19:19:27.121Z,8.27
2018-05-31T19:21:54.082Z,9.47
2018-05-31T19:24:26.876Z,8.70
2018-05-31T19:26:53.723Z,8.50
2018-05-31T19:29:21.244Z,15.77
2018-05-31T19:31:48.840Z,10.83
2018-05-31T19:34:15.723Z,8.17
2018-05-31T19:36:48.688Z,9.00
2018-05-31T19:39:15.511Z,9.70
2018-05-31T19:41:42.284Z,10.13
2018-05-31T19:44:15.105Z,10.03
2018-05-31T19:46:41.965Z,10.43
2018-05-31T19:49:09.615Z,10.77
2018-05-31T19:51:42.676Z,11.87
2018-05-31T19:54:09.593Z,11.63
2018-05-31T19:56:36.417Z,11.17
2018-05-31T19:59:09.384Z,11.17
2018-05-31T20:01:42.959Z,11.77
2018-05-31T20:04:09.913Z,11.40
2018-05-31T20:06:36.792Z,11.80
2018-05-31T20:09:04.177Z,12.10
2018-05-31T20:11:31.227Z,11.37
2018-05-31T20:13:58.283Z,12.27
2018-05-31T20:16:25.234Z,11.90
2018-05-31T20:18:52.198Z,12.30
2018-05-31T20:21:19.264Z,12.03
2018-05-31T20:23:47.439Z,11.13
2018-05-31T20:26:15.725Z,11.47
2018-05-31T20:28:42.817Z,11.90
2018-05-31T20:31:09.865Z,11.50
2018-05-31T20:33:37.224Z,12.37
2018-05-31T20:36:04.874Z,11.97
2018-05-31T20:38:31.909Z,11.50
2018-05-31T20:40:59.838Z,10.77
2018-05-31T20:43:26.637Z,12.27
2018-05-31T20:45:54.486Z,12.03
2018-05-31T20:48:22.058Z,12.30
2018-05-31T20:50:48.892Z,12.47
2018-05-31T20:53:16.409Z,11.90
2018-05-31T20:55:43.236Z,12.97
2018-05-31T20:58:10.074Z,12.57
2018-05-31T21:00:36.893Z,12.90
2018-05-31T21:03:03.713Z,13.10
2018-05-31T21:05:31.567Z,12.83
2018-05-31T21:07:58.367Z,12.50
2018-05-31T21:10:25.946Z,14.23
2018-05-31T21:12:52.771Z,13.50
2018-05-31T21:15:19.562Z,14.23
2018-05-31T21:17:46.367Z,12.53
2018-05-31T21:20:13.142Z,13.23
2018-05-31T21:22:40.864Z,13.90
2018-05-31T21:25:07.651Z,14.13
2018-05-31T21:27:34.436Z,13.00
2018-05-31T21:30:01.269Z,13.50
2018-05-31T21:32:28.048Z,13.93
2018-05-31T21:34:55.599Z,14.03
2018-05-31T21:37:22.411Z,13.73
2018-05-31T21:39:49.979Z,12.97
2018-05-31T21:42:16.751Z,13.13
2018-05-31T21:44:43.514Z,12.83
2018-05-31T21:47:10.421Z,13.70
2018-05-31T21:49:37.195Z,12.57
2018-05-31T21:52:04.138Z,12.93
2018-05-31T21:54:30.917Z,13.47
2018-05-31T21:56:58.485Z,14.37
2018-05-31T21:59:25.532Z,14.63
2018-05-31T22:01:53.108Z,14.50
2018-05-31T22:04:19.984Z,15.23
2018-05-31T22:06:46.812Z,15.00
2018-05-31T22:09:13.707Z,13.80
2018-05-31T22:11:41.260Z,14.63
2018-05-31T22:14:08.044Z,13.87
2018-05-31T22:16:34.904Z,14.27
2018-05-31T22:19:01.677Z,13.70
2018-05-31T22:21:28.520Z,13.73
2018-05-31T22:23:57.062Z,13.23
2018-05-31T22:26:23.893Z,13.60
2018-05-31T22:28:51.400Z,13.97
2018-05-31T22:31:18.242Z,13.77
2018-05-31T22:33:45.018Z,14.03
2018-05-31T22:36:11.844Z,14.13
2018-05-31T22:38:38.664Z,14.13
2018-05-31T22:41:05.501Z,13.70
2018-05-31T22:43:32.495Z,14.60
2018-05-31T22:45:59.634Z,13.40
2018-05-31T22:48:26.471Z,13.60
2018-05-31T22:50:53.244Z,14.03
2018-05-31T22:53:20.173Z,13.80
2018-05-31T22:55:47.776Z,14.00
2018-05-31T22:58:14.681Z,14.37
2018-05-31T23:00:41.762Z,13.73
2018-05-31T23:03:08.558Z,13.93
2018-05-31T23:05:35.378Z,14.43
2018-05-31T23:08:02.148Z,12.97
2018-05-31T23:10:28.922Z,14.87
2018-05-31T23:12:55.801Z,14.33
2018-05-31T23:15:22.637Z,13.07
2018-05-31T23:17:49.658Z,13.83
2018-05-31T23:20:17.234Z,13.67
2018-05-31T23:22:44.060Z,13.43
2018-05-31T23:25:10.908Z,14.17
2018-05-31T23:27:38.475Z,14.27
2018-05-31T23:30:06.050Z,13.93
2018-05-31T23:32:32.824Z,13.90
2018-05-31T23:34:59.609Z,13.23
2018-05-31T23:37:26.468Z,13.60
2018-05-31T23:39:53.999Z,15.27
2018-05-31T23:42:20.828Z,14.93
2018-05-31T23:44:47.634Z,15.57
2018-05-31T23:47:14.464Z,14.67
2018-05-31T23:49:41.309Z,15.67
2018-05-31T23:52:08.000Z,14.97
2018-05-31T23:54:34.632Z,15.43
2018-05-31T23:57:01.304Z,15.83
2018-05-31T23:59:27.932Z,16.40
